createdAt,value
2018-12-05T00:02:19.108Z,15.33
2018-12-05T00:04:46.800Z,10.40
2018-12-05T00:07:14.468Z,13.97
2018-12-05T00:09:42.065Z,9.93
2018-12-05T00:12:09.742Z,7.57
2018-12-05T00:14:37.414Z,8.97
2018-12-05T00:17:05.016Z,9.90
2018-12-05T00:19:32.702Z,9.47
2018-12-05T00:22:00.357Z,16.50
2018-12-05T00:24:28.957Z,12.37
2018-12-05T00:26:56.758Z,11.23
2018-12-05T00:29:24.326Z,13.13
2018-12-05T00:31:52.072Z,11.33
2018-12-05T00:34:21.158Z,9.03
2018-12-05T00:36:48.676Z,10.07
2018-12-05T00:39:16.237Z,13.13
2018-12-05T00:41:43.823Z,10.67
2018-12-05T00:44:12.027Z,8.00
2018-12-05T00:46:39.808Z,12.90
2018-12-05T00:49:07.415Z,7.90
2018-12-05T00:51:35.363Z,11.63
2018-12-05T00:54:03.209Z,11.80
2018-12-05T00:56:30.960Z,8.50
2018-12-05T00:58:58.605Z,10.00
2018-12-05T01:01:26.303Z,7.60
2018-12-05T01:03:54.019Z,10.70
2018-12-05T01:06:21.634Z,10.23
2018-12-05T01:08:49.509Z,9.17
2018-12-05T01:11:17.436Z,7.40
2018-12-05T01:13:45.024Z,9.27
2018-12-05T01:16:12.834Z,12.40
2018-12-05T01:18:40.433Z,7.27
2018-12-05T01:21:08.004Z,7.80
2018-12-05T01:23:35.687Z,8.10
2018-12-05T01:26:04.774Z,10.80
2018-12-05T01:28:32.674Z,11.73
2018-12-05T01:31:02.445Z,13.23
2018-12-05T01:33:30.197Z,13.30
2018-12-05T01:35:58.355Z,9.60
2018-12-05T01:38:26.032Z,10.40
2018-12-05T01:40:53.688Z,10.70
2018-12-05T01:43:23.501Z,12.13
2018-12-05T01:45:51.832Z,15.00
2018-12-05T01:48:19.645Z,13.40
2018-12-05T01:50:48.491Z,10.57
2018-12-05T01:53:16.222Z,10.80
2018-12-05T01:55:43.911Z,9.27
2018-12-05T01:58:11.800Z,10.23
2018-12-05T02:00:39.461Z,12.73
2018-12-05T02:03:07.230Z,9.73
2018-12-05T02:05:34.805Z,12.17
2018-12-05T02:08:02.390Z,9.10
2018-12-05T02:10:30.028Z,10.27
2018-12-05T02:12:57.732Z,10.57
2018-12-05T02:15:25.586Z,10.27
2018-12-05T02:17:53.706Z,10.50
2018-12-05T02:20:21.673Z,14.10
2018-12-05T02:22:49.281Z,10.00
2018-12-05T02:25:16.958Z,10.70
2018-12-05T02:27:44.848Z,14.83
2018-12-05T02:30:12.920Z,12.33
2018-12-05T02:32:40.693Z,14.33
2018-12-05T02:35:08.468Z,13.70
2018-12-05T02:37:36.184Z,17.33
2018-12-05T02:40:04.854Z,12.47
2018-12-05T02:42:32.454Z,11.20
2018-12-05T02:45:00.097Z,12.50
2018-12-05T02:47:27.673Z,12.83
2018-12-05T02:49:55.310Z,11.97
2018-12-05T02:52:22.913Z,14.83
2018-12-05T02:54:50.657Z,12.47
2018-12-05T02:57:18.307Z,13.77
2018-12-05T02:59:46.073Z,13.93
2018-12-05T03:02:42.085Z,15.60
2018-12-05T03:05:10.356Z,13.20
2018-12-05T03:07:38.060Z,13.77
2018-12-05T03:10:06.162Z,15.67
2018-12-05T03:12:34.014Z,13.07
2018-12-05T03:15:01.672Z,12.57
2018-12-05T03:17:29.365Z,14.83
2018-12-05T03:19:56.980Z,20.60
2018-12-05T03:22:24.575Z,16.37
2018-12-05T03:24:52.135Z,14.97
2018-12-05T03:27:19.858Z,16.60
2018-12-05T03:29:47.458Z,18.60
2018-12-05T03:32:17.100Z,16.10
2018-12-05T03:34:44.646Z,19.07
2018-12-05T03:37:12.496Z,19.73
2018-12-05T03:39:40.399Z,18.43
2018-12-05T03:42:08.197Z,15.90
2018-12-05T03:44:35.970Z,17.77
2018-12-05T03:47:03.670Z,12.70
2018-12-05T03:49:33.313Z,15.77
2018-12-05T03:52:00.949Z,15.30
2018-12-05T03:54:28.617Z,15.47
2018-12-05T03:56:56.209Z,19.73
2018-12-05T03:59:23.764Z,15.80
2018-12-05T04:01:51.799Z,15.50
2018-12-05T04:04:19.507Z,20.87
2018-12-05T04:06:48.046Z,18.70
2018-12-05T04:09:15.698Z,16.23
2018-12-05T04:11:43.326Z,17.83
2018-12-05T04:14:11.317Z,17.47
2018-12-05T04:16:38.961Z,18.67
2018-12-05T04:19:06.613Z,17.43
2018-12-05T04:21:34.263Z,17.37
2018-12-05T04:24:01.811Z,15.50
2018-12-05T04:26:29.478Z,19.67
2018-12-05T04:28:57.127Z,20.23
2018-12-05T04:31:24.955Z,21.80
2018-12-05T04:33:54.725Z,16.77
2018-12-05T04:36:22.349Z,18.03
2018-12-05T04:38:50.292Z,23.77
2018-12-05T04:41:17.823Z,21.77
2018-12-05T04:43:46.881Z,20.97
2018-12-05T04:46:14.466Z,18.83
2018-12-05T04:48:42.201Z,20.13
2018-12-05T04:51:10.179Z,20.93
2018-12-05T04:53:37.777Z,18.00
2018-12-05T04:56:05.581Z,19.57
2018-12-05T04:58:33.430Z,20.03
2018-12-05T05:01:01.046Z,17.70
2018-12-05T05:03:28.714Z,18.77
2018-12-05T05:05:56.387Z,19.20
2018-12-05T05:08:24.287Z,20.90
2018-12-05T05:10:51.846Z,18.73
2018-12-05T05:13:19.486Z,25.27
2018-12-05T05:15:47.434Z,21.67
2018-12-05T05:18:15.529Z,21.30
2018-12-05T05:20:43.364Z,19.43
2018-12-05T05:23:11.011Z,24.10
2018-12-05T05:25:38.773Z,24.47
2018-12-05T05:28:06.468Z,24.47
2018-12-05T05:30:34.422Z,25.00
2018-12-05T05:33:01.975Z,21.23
2018-12-05T05:35:29.866Z,20.70
2018-12-05T05:37:57.494Z,21.53
2018-12-05T05:40:25.299Z,23.87
2018-12-05T05:42:52.993Z,21.80
2018-12-05T05:45:20.662Z,25.63
2018-12-05T05:47:48.293Z,22.03
2018-12-05T05:50:16.131Z,21.57
2018-12-05T05:52:43.648Z,26.37
2018-12-05T05:55:11.919Z,30.70
2018-12-05T05:57:39.873Z,21.87
2018-12-05T06:00:08.397Z,27.80
2018-12-05T06:02:36.081Z,24.40
2018-12-05T06:05:04.146Z,25.93
2018-12-05T06:07:31.818Z,21.50
2018-12-05T06:09:59.459Z,22.57
2018-12-05T06:12:27.258Z,25.83
2018-12-05T06:14:54.838Z,23.33
2018-12-05T06:17:22.609Z,23.60
2018-12-05T06:19:50.222Z,20.53
2018-12-05T06:22:17.755Z,25.10
2018-12-05T06:24:45.376Z,24.57
2018-12-05T06:27:13.121Z,21.43
2018-12-05T06:29:41.245Z,22.53
2018-12-05T06:32:08.933Z,25.90
2018-12-05T06:34:37.660Z,23.70
2018-12-05T06:37:05.282Z,28.80
2018-12-05T06:39:32.920Z,24.53
2018-12-05T06:42:00.882Z,28.80
2018-12-05T06:44:28.449Z,26.20
2018-12-05T06:46:56.027Z,28.80
2018-12-05T06:49:28.347Z,26.33
2018-12-05T06:51:55.922Z,29.37
2018-12-05T06:54:23.729Z,26.33
2018-12-05T06:56:51.357Z,28.67
2018-12-05T06:59:18.947Z,28.07
2018-12-05T07:01:46.743Z,29.50
2018-12-05T07:04:14.325Z,25.40
2018-12-05T07:06:41.857Z,27.90
2018-12-05T07:09:09.454Z,26.73
2018-12-05T07:11:37.303Z,30.40
2018-12-05T07:14:04.904Z,32.47
2018-12-05T07:16:32.572Z,29.63
2018-12-05T07:19:00.123Z,28.13
2018-12-05T07:21:27.787Z,32.80
2018-12-05T07:23:55.274Z,34.63
2018-12-05T07:26:22.890Z,33.53
2018-12-05T07:28:50.781Z,30.90
2018-12-05T07:31:19.454Z,34.10
2018-12-05T07:33:47.149Z,34.17
2018-12-05T07:36:14.830Z,31.23
2018-12-05T07:38:42.563Z,26.07
2018-12-05T07:41:10.341Z,36.97
2018-12-05T07:43:37.944Z,29.57
2018-12-05T07:46:05.721Z,31.73
2018-12-05T07:48:33.650Z,33.00
2018-12-05T07:51:01.318Z,33.70
2018-12-05T07:53:28.917Z,31.70
2018-12-05T07:55:56.583Z,27.40
2018-12-05T07:58:24.335Z,30.40
2018-12-05T08:00:51.929Z,24.47
2018-12-05T08:03:19.479Z,34.23
2018-12-05T08:05:47.242Z,30.97
2018-12-05T08:08:14.955Z,35.50
2018-12-05T08:10:42.643Z,36.80
2018-12-05T08:13:10.673Z,39.37
2018-12-05T08:15:38.477Z,33.20
2018-12-05T08:18:06.359Z,33.30
2018-12-05T08:20:34.322Z,31.90
2018-12-05T08:23:01.954Z,34.83
2018-12-05T08:25:29.767Z,34.83
2018-12-05T08:27:57.321Z,34.77
2018-12-05T08:30:24.966Z,33.80
2018-12-05T08:32:54.679Z,36.77
2018-12-05T08:35:22.474Z,31.87
2018-12-05T08:37:50.216Z,31.47
2018-12-05T08:40:17.751Z,41.43
2018-12-05T08:42:45.363Z,32.93
2018-12-05T08:45:13.114Z,34.83
2018-12-05T08:47:40.928Z,27.33
2018-12-05T08:50:08.810Z,31.40
2018-12-05T08:52:36.574Z,30.43
2018-12-05T08:55:04.589Z,37.00
2018-12-05T08:57:33.359Z,31.53
2018-12-05T09:00:01.151Z,34.40
2018-12-05T09:02:28.894Z,29.67
2018-12-05T09:04:56.440Z,39.97
2018-12-05T09:07:23.954Z,34.30
2018-12-05T09:09:51.830Z,34.27
2018-12-05T09:12:19.375Z,32.27
2018-12-05T09:14:47.138Z,37.27
2018-12-05T09:17:14.896Z,31.60
2018-12-05T09:19:42.589Z,32.10
2018-12-05T09:22:10.373Z,38.33
2018-12-05T09:24:38.040Z,31.67
2018-12-05T09:27:06.082Z,34.40
2018-12-05T09:29:33.981Z,32.90
2018-12-05T09:32:01.568Z,28.93
2018-12-05T09:34:29.383Z,34.20
2018-12-05T09:36:57.351Z,33.43
2018-12-05T09:39:29.359Z,28.27
2018-12-05T09:41:57.017Z,38.80
2018-12-05T09:44:24.913Z,40.10
2018-12-05T09:46:52.609Z,33.23
2018-12-05T09:49:20.241Z,32.13
2018-12-05T09:51:47.918Z,34.47
2018-12-05T09:54:16.140Z,33.73
2018-12-05T09:56:43.743Z,25.47
2018-12-05T09:59:11.562Z,29.83
2018-12-05T10:01:39.211Z,27.73
2018-12-05T10:04:06.771Z,32.30
2018-12-05T10:06:34.312Z,26.63
2018-12-05T10:09:03.345Z,27.30
2018-12-05T10:11:32.942Z,27.67
2018-12-05T10:14:00.622Z,23.47
2018-12-05T10:16:28.205Z,24.17
2018-12-05T10:18:55.899Z,25.40
2018-12-05T10:21:23.610Z,24.97
2018-12-05T10:23:51.310Z,20.17
2018-12-05T10:26:19.054Z,26.10
2018-12-05T10:28:46.605Z,26.13
2018-12-05T10:31:14.358Z,21.80
2018-12-05T10:33:42.336Z,22.60
2018-12-05T10:36:10.194Z,25.27
2018-12-05T10:38:37.901Z,27.00
2018-12-05T10:41:06.133Z,25.90
2018-12-05T10:43:34.623Z,27.10
2018-12-05T10:46:02.661Z,22.47
2018-12-05T10:48:30.363Z,22.53
2018-12-05T10:50:59.178Z,23.30
2018-12-05T10:53:26.777Z,21.90
2018-12-05T10:55:54.445Z,25.33
2018-12-05T10:58:22.047Z,19.43
2018-12-05T11:00:56.395Z,20.83
2018-12-05T11:03:29.839Z,22.53
2018-12-05T11:06:03.182Z,23.90
2018-12-05T11:09:40.246Z,29.73
2018-12-05T11:12:14.121Z,24.20
2018-12-05T11:15:51.284Z,18.27
2018-12-05T11:18:25.083Z,18.50
2018-12-05T11:20:59.134Z,20.07
2018-12-05T11:23:32.640Z,27.57
2018-12-05T11:26:04.744Z,18.63
2018-12-05T11:28:33.766Z,19.03
2018-12-05T11:31:01.381Z,19.80
2018-12-05T11:33:29.082Z,20.70
2018-12-05T11:35:56.733Z,16.63
2018-12-05T11:38:24.358Z,17.57
2018-12-05T11:40:52.314Z,16.40
2018-12-05T11:43:19.927Z,18.33
2018-12-05T11:45:47.813Z,20.23
2018-12-05T11:48:15.521Z,18.50
2018-12-05T11:50:43.186Z,13.27
2018-12-05T11:53:10.763Z,11.93
2018-12-05T11:55:38.491Z,14.20
2018-12-05T11:58:06.126Z,12.73
2018-12-05T12:00:33.959Z,15.27
2018-12-05T12:03:01.668Z,13.23
2018-12-05T12:05:31.298Z,17.87
2018-12-05T12:08:00.980Z,18.53
2018-12-05T12:10:34.385Z,13.10
2018-12-05T12:13:05.423Z,12.73
2018-12-05T12:15:34.750Z,15.83
2018-12-05T12:18:02.342Z,15.20
2018-12-05T12:20:29.930Z,12.20
2018-12-05T12:22:57.752Z,17.97
2018-12-05T12:25:25.975Z,13.00
2018-12-05T12:27:53.852Z,14.37
2018-12-05T12:30:21.735Z,11.53
2018-12-05T12:32:51.772Z,14.00
2018-12-05T12:35:21.224Z,12.87
2018-12-05T12:37:50.018Z,12.80
2018-12-05T12:40:17.547Z,15.37
2018-12-05T12:42:45.220Z,15.37
2018-12-05T12:45:13.292Z,15.83
2018-12-05T12:47:40.916Z,16.70
2018-12-05T12:50:08.737Z,15.37
2018-12-05T12:52:36.813Z,15.77
2018-12-05T12:55:05.454Z,14.10
2018-12-05T12:57:33.078Z,18.43
2018-12-05T13:00:00.606Z,14.80
2018-12-05T13:02:28.284Z,16.13
2018-12-05T13:04:55.973Z,13.63
2018-12-05T13:07:23.590Z,13.33
2018-12-05T13:09:51.529Z,11.97
2018-12-05T13:12:25.038Z,19.17
2018-12-05T13:14:52.768Z,16.13
2018-12-05T13:17:20.395Z,12.83
2018-12-05T13:19:48.009Z,20.27
2018-12-05T13:22:15.555Z,13.80
2018-12-05T13:24:43.293Z,17.93
2018-12-05T13:27:10.974Z,13.70
2018-12-05T13:29:38.522Z,12.87
2018-12-05T13:32:06.314Z,12.70
2018-12-05T13:34:33.918Z,19.37
2018-12-05T13:37:01.842Z,16.40
2018-12-05T13:39:29.766Z,14.13
2018-12-05T13:41:57.451Z,17.40
2018-12-05T13:44:25.871Z,14.50
2018-12-05T13:46:53.676Z,15.83
2018-12-05T13:49:21.496Z,10.57
2018-12-05T13:51:49.138Z,14.97
2018-12-05T13:54:17.541Z,17.13
2018-12-05T13:56:45.236Z,15.47
2018-12-05T13:59:13.068Z,14.97
2018-12-05T14:01:40.820Z,11.87
2018-12-05T14:04:09.887Z,14.13
2018-12-05T14:06:37.789Z,11.43
2018-12-05T14:09:06.590Z,12.50
2018-12-05T14:11:34.765Z,17.90
2018-12-05T14:14:02.652Z,15.40
2018-12-05T14:16:30.297Z,16.70
2018-12-05T14:18:58.168Z,11.00
2018-12-05T14:21:25.781Z,14.83
2018-12-05T14:23:53.383Z,18.13
2018-12-05T14:26:21.502Z,14.03
2018-12-05T14:28:49.074Z,15.50
2018-12-05T14:31:16.760Z,16.10
2018-12-05T14:33:44.450Z,13.20
2018-12-05T14:36:12.097Z,13.97
2018-12-05T14:38:39.649Z,11.80
2018-12-05T14:41:07.196Z,25.30
2018-12-05T14:43:34.871Z,15.13
2018-12-05T14:46:02.459Z,15.27
2018-12-05T14:48:30.018Z,13.57
2018-12-05T14:50:57.721Z,14.10
2018-12-05T14:53:25.271Z,17.27
2018-12-05T14:55:52.974Z,19.43
2018-12-05T14:58:20.482Z,13.90
2018-12-05T15:00:48.271Z,17.80
2018-12-05T15:03:15.848Z,18.07
2018-12-05T15:05:43.389Z,16.83
2018-12-05T15:08:11.081Z,18.53
2018-12-05T15:10:38.633Z,16.00
2018-12-05T15:13:06.234Z,22.60
2018-12-05T15:15:34.272Z,15.23
2018-12-05T15:18:01.940Z,17.90
2018-12-05T15:20:29.623Z,16.47
2018-12-05T15:22:57.222Z,16.50
2018-12-05T15:25:25.903Z,17.47
2018-12-05T15:27:54.722Z,17.70
2018-12-05T15:30:22.476Z,13.70
2018-12-05T15:32:52.318Z,20.60
2018-12-05T15:35:20.089Z,15.07
2018-12-05T15:37:47.750Z,13.30
2018-12-05T15:40:15.305Z,14.33
2018-12-05T15:42:44.900Z,14.60
2018-12-05T15:45:12.995Z,10.50
2018-12-05T15:47:40.773Z,14.87
2018-12-05T15:50:08.674Z,12.03
2018-12-05T15:52:36.496Z,10.60
2018-12-05T15:55:04.450Z,9.87
2018-12-05T15:57:32.270Z,15.33
2018-12-05T16:00:00.350Z,14.20
2018-12-05T16:02:28.064Z,9.23
2018-12-05T16:04:55.597Z,13.90
2018-12-05T16:07:23.583Z,11.40
2018-12-05T16:09:51.308Z,17.97
2018-12-05T16:12:23.253Z,16.27
2018-12-05T16:14:51.682Z,12.13
2018-12-05T16:17:19.462Z,9.77
2018-12-05T16:19:47.857Z,11.00
2018-12-05T16:22:15.576Z,9.17
2018-12-05T16:24:43.338Z,11.83
2018-12-05T16:27:11.586Z,12.20
2018-12-05T16:29:39.199Z,11.93
2018-12-05T16:32:07.232Z,9.53
2018-12-05T16:34:34.972Z,9.20
2018-12-05T16:37:02.783Z,10.13
2018-12-05T16:39:30.406Z,12.47
2018-12-05T16:41:57.943Z,14.70
2018-12-05T16:44:25.702Z,7.13
2018-12-05T16:46:53.992Z,10.20
2018-12-05T16:49:21.610Z,10.87
2018-12-05T16:51:49.234Z,8.87
2018-12-05T16:54:17.172Z,7.83
2018-12-05T16:56:44.840Z,12.67
2018-12-05T16:59:12.418Z,12.60
2018-12-05T17:01:40.049Z,7.60
2018-12-05T17:04:07.688Z,10.57
2018-12-05T17:06:35.320Z,9.13
2018-12-05T17:09:04.824Z,9.83
2018-12-05T17:11:34.511Z,13.20
2018-12-05T17:14:02.021Z,11.67
2018-12-05T17:16:29.562Z,14.80
2018-12-05T17:18:57.148Z,8.83
2018-12-05T17:21:25.152Z,9.50
2018-12-05T17:23:52.938Z,8.30
2018-12-05T17:26:20.656Z,8.73
2018-12-05T17:28:48.177Z,10.90
2018-12-05T17:31:15.865Z,14.13
2018-12-05T17:33:43.434Z,14.23
2018-12-05T17:36:11.145Z,10.30
2018-12-05T17:38:38.773Z,11.70
2018-12-05T17:41:06.814Z,11.77
2018-12-05T17:43:34.719Z,12.83
2018-12-05T17:46:02.567Z,13.63
2018-12-05T17:48:30.393Z,10.57
2018-12-05T17:50:58.108Z,8.87
2018-12-05T17:53:25.962Z,9.90
2018-12-05T17:55:53.718Z,8.60
2018-12-05T17:58:21.253Z,10.20
2018-12-05T18:00:49.088Z,10.93
2018-12-05T18:03:16.971Z,10.10
2018-12-05T18:05:44.573Z,10.53
2018-12-05T18:08:12.359Z,11.10
2018-12-05T18:10:39.989Z,6.90
2018-12-05T18:13:07.657Z,7.13
2018-12-05T18:15:35.390Z,6.77
2018-12-05T18:18:03.020Z,11.90
2018-12-05T18:20:31.025Z,9.97
2018-12-05T18:22:58.565Z,13.07
2018-12-05T18:25:26.224Z,6.63
2018-12-05T18:27:53.837Z,12.87
2018-12-05T18:30:21.458Z,10.50
2018-12-05T18:32:49.018Z,8.10
2018-12-05T18:35:16.602Z,11.50
2018-12-05T18:37:44.247Z,7.53
2018-12-05T18:40:11.849Z,10.20
2018-12-05T18:42:39.568Z,10.23
2018-12-05T18:45:07.808Z,7.50
2018-12-05T18:47:35.583Z,8.50
2018-12-05T18:50:04.429Z,8.90
2018-12-05T18:52:32.086Z,8.37
2018-12-05T18:54:59.709Z,10.70
2018-12-05T18:57:27.355Z,12.47
2018-12-05T19:00:01.128Z,15.73
2018-12-05T19:02:24.601Z,10.20
2018-12-05T19:04:53.026Z,16.30
2018-12-05T19:07:21.476Z,7.90
2018-12-05T19:09:49.258Z,11.97
2018-12-05T19:12:17.214Z,7.37
2018-12-05T19:14:45.364Z,13.97
2018-12-05T19:17:13.508Z,10.97
2018-12-05T19:19:41.875Z,12.90
2018-12-05T19:22:09.430Z,9.33
2018-12-05T19:24:37.068Z,7.93
2018-12-05T19:27:04.754Z,8.87
2018-12-05T19:29:32.418Z,10.10
2018-12-05T19:32:00.070Z,13.07
2018-12-05T19:34:28.878Z,9.13
2018-12-05T19:36:56.449Z,7.33
2018-12-05T19:39:24.190Z,11.50
2018-12-05T19:41:53.500Z,13.87
2018-12-05T19:44:21.314Z,11.70
2018-12-05T19:46:48.974Z,8.93
2018-12-05T19:49:16.689Z,11.37
2018-12-05T19:51:44.542Z,8.27
2018-12-05T19:54:12.221Z,9.27
2018-12-05T19:56:39.873Z,8.00
2018-12-05T19:59:07.849Z,12.53
2018-12-05T20:01:35.741Z,13.90
2018-12-05T20:04:03.467Z,12.17
2018-12-05T20:06:31.300Z,12.83
2018-12-05T20:08:59.022Z,12.53
2018-12-05T20:11:26.993Z,10.43
2018-12-05T20:13:54.739Z,10.57
2018-12-05T20:16:22.485Z,10.10
2018-12-05T20:18:50.130Z,8.80
2018-12-05T20:21:17.846Z,13.67
2018-12-05T20:23:45.495Z,11.00
2018-12-05T20:26:13.133Z,15.87
2018-12-05T20:28:42.240Z,13.70
2018-12-05T20:31:10.169Z,11.73
2018-12-05T20:33:38.071Z,10.53
2018-12-05T20:36:05.693Z,8.37
2018-12-05T20:38:33.598Z,9.83
2018-12-05T20:41:01.222Z,8.53
2018-12-05T20:43:28.833Z,9.40
2018-12-05T20:45:56.490Z,7.97
2018-12-05T20:48:24.297Z,9.53
2018-12-05T20:50:51.899Z,11.57
2018-12-05T20:53:19.721Z,10.60
2018-12-05T20:55:47.557Z,14.73
2018-12-05T20:58:15.156Z,12.67
2018-12-05T21:00:42.717Z,13.70
2018-12-05T21:03:13.662Z,15.57
2018-12-05T21:05:41.255Z,10.20
2018-12-05T21:08:09.007Z,9.70
2018-12-05T21:10:36.830Z,11.13
2018-12-05T21:13:04.502Z,8.87
2018-12-05T21:15:32.156Z,9.33
2018-12-05T21:17:59.723Z,10.50
2018-12-05T21:20:32.350Z,12.43
2018-12-05T21:22:59.881Z,9.80
2018-12-05T21:25:27.508Z,14.03
2018-12-05T21:27:55.212Z,11.87
2018-12-05T21:30:22.976Z,11.80
2018-12-05T21:32:50.622Z,10.87
2018-12-05T21:35:19.442Z,14.13
2018-12-05T21:37:47.097Z,8.93
2018-12-05T21:40:15.217Z,11.20
2018-12-05T21:42:42.790Z,17.67
2018-12-05T21:45:10.702Z,11.10
2018-12-05T21:47:38.608Z,11.33
2018-12-05T21:50:07.097Z,13.60
2018-12-05T21:52:34.812Z,13.47
2018-12-05T21:55:02.866Z,13.70
2018-12-05T21:57:30.522Z,10.27
2018-12-05T21:59:58.125Z,13.97
2018-12-05T22:02:25.998Z,12.10
2018-12-05T22:04:54.683Z,15.00
2018-12-05T22:07:22.296Z,11.37
2018-12-05T22:09:50.008Z,12.70
2018-12-05T22:12:17.561Z,15.00
2018-12-05T22:14:45.172Z,12.70
2018-12-05T22:17:12.842Z,15.00
2018-12-05T22:19:40.411Z,17.97
2018-12-05T22:22:08.197Z,14.23
2018-12-05T22:24:36.273Z,11.50
2018-12-05T22:27:03.907Z,12.87
2018-12-05T22:29:34.805Z,20.57
2018-12-05T22:32:02.370Z,11.47
2018-12-05T22:34:30.122Z,15.60
2018-12-05T22:36:57.749Z,12.53
2018-12-05T22:39:25.372Z,12.20
2018-12-05T22:41:52.927Z,14.13
2018-12-05T22:44:20.545Z,12.17
2018-12-05T22:46:48.116Z,13.07
2018-12-05T22:49:15.744Z,15.20
2018-12-05T22:51:43.409Z,12.10
2018-12-05T22:54:11.121Z,16.60
2018-12-05T22:56:38.699Z,12.77
2018-12-05T22:59:06.330Z,15.83
2018-12-05T23:01:34.041Z,14.43
2018-12-05T23:04:02.127Z,14.30
2018-12-05T23:06:29.875Z,11.67
2018-12-05T23:08:57.636Z,15.60
2018-12-05T23:11:25.425Z,12.40
2018-12-05T23:13:53.125Z,13.47
2018-12-05T23:16:21.018Z,15.07
2018-12-05T23:18:48.643Z,21.87
2018-12-05T23:21:16.459Z,15.43
2018-12-05T23:23:44.148Z,16.93
2018-12-05T23:26:11.929Z,17.07
2018-12-05T23:28:39.561Z,18.67
2018-12-05T23:31:07.217Z,17.33
2018-12-05T23:33:34.789Z,14.33
2018-12-05T23:36:02.365Z,17.37
2018-12-05T23:38:29.968Z,22.10
2018-12-05T23:40:57.640Z,15.33
2018-12-05T23:43:25.217Z,15.50
2018-12-05T23:45:53.474Z,20.17
2018-12-05T23:48:21.174Z,15.47
2018-12-05T23:50:48.778Z,15.47
2018-12-05T23:53:16.421Z,16.70
2018-12-05T23:55:48.293Z,20.03
2018-12-05T23:58:16.014Z,22.43
